createdAt,value
2023-01-03T00:00:38.261Z,36.78
2023-01-03T00:03:06.027Z,26.62
2023-01-03T00:05:36.499Z,33.67
2023-01-03T00:08:03.969Z,22.17
2023-01-03T00:10:31.636Z,25.12
2023-01-03T00:12:59.083Z,35.05
2023-01-03T00:15:26.860Z,23.42
2023-01-03T00:17:55.645Z,27.87
2023-01-03T00:20:23.075Z,21.77
2023-01-03T00:22:50.515Z,25.52
2023-01-03T00:25:18.223Z,23.65
2023-01-03T00:27:45.595Z,22.98
2023-01-03T00:30:13.525Z,21.02
2023-01-03T00:32:41.233Z,25.75
2023-01-03T00:35:09.247Z,28.23
2023-01-03T00:37:36.736Z,25.62
2023-01-03T00:40:05.118Z,28.45
2023-01-03T00:42:52.447Z,38.70
2023-01-03T00:45:21.761Z,52.95
2023-01-03T00:47:51.741Z,59.90
2023-01-03T00:50:19.184Z,61.83
2023-01-03T00:52:46.824Z,43.70
2023-01-03T00:55:14.256Z,28.23
2023-01-03T00:57:41.661Z,29.00
2023-01-03T01:00:09.921Z,29.58
2023-01-03T01:02:37.454Z,51.95
2023-01-03T01:05:05.568Z,49.42
2023-01-03T01:07:33.211Z,34.35
2023-01-03T01:10:00.618Z,56.08
2023-01-03T01:12:28.030Z,63.53
2023-01-03T01:14:56.347Z,30.25
2023-01-03T01:17:23.740Z,63.92
2023-01-03T01:19:51.113Z,52.60
2023-01-03T01:22:18.785Z,42.20
2023-01-03T01:24:46.222Z,38.10
2023-01-03T01:27:13.845Z,29.23
2023-01-03T01:29:41.558Z,40.72
2023-01-03T01:32:08.928Z,32.72
2023-01-03T01:34:36.636Z,55.67
2023-01-03T01:37:04.419Z,35.63
2023-01-03T01:39:31.848Z,50.67
2023-01-03T01:42:21.259Z,32.95
2023-01-03T01:44:57.642Z,51.83
2023-01-03T01:47:44.095Z,38.42
2023-01-03T01:50:17.943Z,42.25
2023-01-03T01:52:57.222Z,30.33
2023-01-03T01:55:28.739Z,45.28
2023-01-03T01:57:56.257Z,33.40
2023-01-03T02:00:23.889Z,28.40
2023-01-03T02:02:53.588Z,30.85
2023-01-03T02:05:23.617Z,31.40
2023-01-03T02:07:52.130Z,29.48
2023-01-03T02:10:29.605Z,42.40
2023-01-03T02:13:23.559Z,52.13
2023-01-03T02:16:13.238Z,35.70
2023-01-03T02:19:08.781Z,60.65
2023-01-03T02:22:00.227Z,61.28
2023-01-03T02:24:36.939Z,34.35
2023-01-03T02:27:34.598Z,41.35
2023-01-03T02:30:08.268Z,30.20
2023-01-03T02:32:45.675Z,61.80
2023-01-03T02:35:25.989Z,36.80
2023-01-03T02:38:09.363Z,29.85
2023-01-03T02:40:44.107Z,30.05
2023-01-03T02:43:11.373Z,37.95
2023-01-03T02:46:03.353Z,29.42
2023-01-03T02:48:57.556Z,36.63
2023-01-03T02:51:38.509Z,32.03
2023-01-03T02:54:08.906Z,34.45
2023-01-03T02:56:45.533Z,35.97
2023-01-03T02:59:15.812Z,29.83
2023-01-03T03:01:50.117Z,31.77
2023-01-03T03:04:18.967Z,31.25
2023-01-03T03:06:52.905Z,32.65
2023-01-03T03:09:20.364Z,27.20
2023-01-03T03:12:07.547Z,30.12
2023-01-03T03:14:39.062Z,30.73
2023-01-03T03:17:11.414Z,27.77
2023-01-03T03:20:00.602Z,29.35
2023-01-03T03:23:15.327Z,25.73
2023-01-03T03:25:52.015Z,26.87
2023-01-03T03:28:35.130Z,29.98
2023-01-03T03:31:02.491Z,29.58
2023-01-03T03:33:33.635Z,30.80
2023-01-03T03:36:17.007Z,31.17
2023-01-03T03:38:45.679Z,29.27
2023-01-03T03:41:40.472Z,30.35
2023-01-03T03:44:34.796Z,31.42
2023-01-03T03:47:26.591Z,29.02
2023-01-03T03:49:57.792Z,27.48
2023-01-03T03:52:29.777Z,35.97
2023-01-03T03:55:06.516Z,28.62
2023-01-03T03:57:36.370Z,29.70
2023-01-03T04:00:16.965Z,32.75
2023-01-03T04:02:47.102Z,32.78
2023-01-03T04:05:17.921Z,31.67
2023-01-03T04:07:45.634Z,27.95
2023-01-03T04:10:13.752Z,30.88
2023-01-03T04:12:41.384Z,31.45
2023-01-03T04:15:09.369Z,30.48
2023-01-03T04:17:36.790Z,30.45
2023-01-03T04:20:04.464Z,27.65
2023-01-03T04:22:32.111Z,30.50
2023-01-03T04:24:59.517Z,32.88
2023-01-03T04:27:26.986Z,23.52
2023-01-03T04:29:54.642Z,27.08
2023-01-03T04:32:23.711Z,27.50
2023-01-03T04:34:51.135Z,30.40
2023-01-03T04:37:18.944Z,30.05
2023-01-03T04:39:46.321Z,24.67
2023-01-03T04:42:32.364Z,26.40
2023-01-03T04:45:00.583Z,27.98
2023-01-03T04:47:28.000Z,25.65
2023-01-03T04:49:55.752Z,31.02
2023-01-03T04:52:23.500Z,29.65
2023-01-03T04:54:50.910Z,28.48
2023-01-03T04:57:18.267Z,28.05
2023-01-03T04:59:45.970Z,26.70
2023-01-03T05:02:13.548Z,25.37
2023-01-03T05:04:41.116Z,26.48
2023-01-03T05:07:08.997Z,25.85
2023-01-03T05:09:36.370Z,33.60
2023-01-03T05:12:03.927Z,30.05
2023-01-03T05:14:31.681Z,29.50
2023-01-03T05:16:59.489Z,28.90
2023-01-03T05:19:27.043Z,30.60
2023-01-03T05:22:13.385Z,27.00
2023-01-03T05:24:59.443Z,28.73
2023-01-03T05:27:27.480Z,25.58
2023-01-03T05:29:55.300Z,27.40
2023-01-03T05:32:25.085Z,26.48
2023-01-03T05:34:52.863Z,30.08
2023-01-03T05:37:20.263Z,29.95
2023-01-03T05:39:48.825Z,29.45
2023-01-03T05:42:16.513Z,32.00
2023-01-03T05:44:43.915Z,28.52
2023-01-03T05:47:11.359Z,28.65
2023-01-03T05:49:39.003Z,29.60
2023-01-03T05:52:06.686Z,28.87
2023-01-03T05:54:34.102Z,30.30
2023-01-03T05:57:02.093Z,31.52
2023-01-03T05:59:29.469Z,27.90
2023-01-03T06:01:57.005Z,29.27
2023-01-03T06:04:24.846Z,30.00
2023-01-03T06:06:52.407Z,27.83
2023-01-03T06:09:19.842Z,28.25
2023-01-03T06:11:47.541Z,29.70
2023-01-03T06:14:14.904Z,33.15
2023-01-03T06:17:01.028Z,29.60
2023-01-03T06:19:28.882Z,29.05
2023-01-03T06:21:56.308Z,27.65
2023-01-03T06:24:23.750Z,27.42
2023-01-03T06:26:51.491Z,30.65
2023-01-03T06:29:18.904Z,31.35
2023-01-03T06:31:46.570Z,29.23
2023-01-03T06:34:15.311Z,28.08
2023-01-03T06:36:42.764Z,29.80
2023-01-03T06:39:10.371Z,27.40
2023-01-03T06:41:38.079Z,28.02
2023-01-03T06:44:05.526Z,31.35
2023-01-03T06:46:51.515Z,26.37
2023-01-03T06:49:37.534Z,32.53
2023-01-03T06:52:24.489Z,31.77
2023-01-03T06:54:53.519Z,32.00
2023-01-03T06:57:26.653Z,29.60
2023-01-03T06:59:55.439Z,30.77
2023-01-03T07:02:23.020Z,31.85
2023-01-03T07:04:50.572Z,31.00
2023-01-03T07:07:18.359Z,30.25
2023-01-03T07:09:45.764Z,28.65
2023-01-03T07:12:31.832Z,32.30
2023-01-03T07:14:59.505Z,26.92
2023-01-03T07:17:26.925Z,28.58
2023-01-03T07:19:54.679Z,27.85
2023-01-03T07:22:22.386Z,26.10
2023-01-03T07:24:49.815Z,25.73
2023-01-03T07:27:17.228Z,24.25
2023-01-03T07:29:44.908Z,23.02
2023-01-03T07:32:12.254Z,21.67
2023-01-03T07:34:39.609Z,20.85
2023-01-03T07:37:07.301Z,22.67
2023-01-03T07:39:34.718Z,22.23
2023-01-03T07:42:20.467Z,21.67
2023-01-03T07:44:48.140Z,18.87
2023-01-03T07:47:15.516Z,18.77
2023-01-03T07:49:42.898Z,18.92
2023-01-03T07:52:11.859Z,19.80
2023-01-03T07:54:39.409Z,18.30
2023-01-03T07:57:06.824Z,19.23
2023-01-03T07:59:34.639Z,19.62
2023-01-03T08:02:02.093Z,18.70
2023-01-03T08:04:29.966Z,19.05
2023-01-03T08:06:58.121Z,21.35
2023-01-03T08:09:44.090Z,20.12
2023-01-03T08:12:30.035Z,23.85
2023-01-03T08:14:57.402Z,22.33
2023-01-03T08:17:25.069Z,23.12
2023-01-03T08:19:52.462Z,21.75
2023-01-03T08:22:20.026Z,22.65
2023-01-03T08:24:47.675Z,22.08
2023-01-03T08:27:15.039Z,24.87
2023-01-03T08:29:42.442Z,23.08
2023-01-03T08:32:10.345Z,25.30
2023-01-03T08:34:38.834Z,25.88
2023-01-03T08:37:10.244Z,21.95
2023-01-03T08:39:59.139Z,22.97
2023-01-03T08:42:26.924Z,20.92
2023-01-03T08:45:03.688Z,22.05
2023-01-03T08:47:31.592Z,24.23
2023-01-03T08:49:59.901Z,22.27
2023-01-03T08:52:33.099Z,21.17
2023-01-03T08:55:03.367Z,22.67
2023-01-03T08:57:31.081Z,19.95
2023-01-03T08:59:58.505Z,22.75
2023-01-03T09:02:26.306Z,22.90
2023-01-03T09:04:53.870Z,21.25
2023-01-03T09:07:21.535Z,24.15
2023-01-03T09:09:49.214Z,23.42
2023-01-03T09:12:16.621Z,24.67
2023-01-03T09:14:44.110Z,23.08
2023-01-03T09:17:11.791Z,24.75
2023-01-03T09:19:39.183Z,22.70
2023-01-03T09:22:06.608Z,24.30
2023-01-03T09:24:34.771Z,22.98
2023-01-03T09:27:02.131Z,23.50
2023-01-03T09:29:29.594Z,23.67
2023-01-03T09:31:57.300Z,24.05
2023-01-03T09:34:24.719Z,23.60
2023-01-03T09:36:52.080Z,26.15
2023-01-03T09:39:20.238Z,24.37
2023-01-03T09:42:07.781Z,24.08
2023-01-03T09:44:35.434Z,24.10
2023-01-03T09:47:04.352Z,23.20
2023-01-03T09:49:32.342Z,26.17
2023-01-03T09:52:18.708Z,30.42
2023-01-03T09:55:04.716Z,25.77
2023-01-03T09:57:53.747Z,24.98
2023-01-03T10:00:45.898Z,22.20
2023-01-03T10:03:50.170Z,21.15
2023-01-03T10:06:50.593Z,37.17
2023-01-03T10:09:54.307Z,30.20
2023-01-03T10:12:38.642Z,72.95
2023-01-03T10:15:12.164Z,24.37
2023-01-03T10:17:52.059Z,23.05
2023-01-03T10:20:33.826Z,24.00
2023-01-03T10:23:01.364Z,23.95
2023-01-03T10:25:30.233Z,27.15
2023-01-03T10:28:12.212Z,25.50
2023-01-03T10:30:59.501Z,26.77
2023-01-03T10:33:33.865Z,25.27
2023-01-03T10:36:01.666Z,27.75
2023-01-03T10:38:29.630Z,24.63
2023-01-03T10:40:59.368Z,24.75
2023-01-03T10:43:39.035Z,25.85
2023-01-03T10:46:16.857Z,22.83
2023-01-03T10:49:25.812Z,24.75
2023-01-03T10:51:43.158Z,32.58
2023-01-03T10:54:21.009Z,25.83
2023-01-03T10:56:49.166Z,25.73
2023-01-03T10:59:29.703Z,45.33
2023-01-03T11:01:57.447Z,36.13
2023-01-03T11:04:26.158Z,28.10
2023-01-03T11:07:08.554Z,28.30
2023-01-03T11:09:48.737Z,34.83
2023-01-03T11:12:41.606Z,29.05
2023-01-03T11:15:19.323Z,23.45
2023-01-03T11:17:54.261Z,21.95
2023-01-03T11:20:26.402Z,22.00
2023-01-03T11:23:02.702Z,20.88
2023-01-03T11:25:36.533Z,24.45
2023-01-03T11:28:25.794Z,24.05
2023-01-03T11:31:02.114Z,21.67
2023-01-03T11:33:45.993Z,22.02
2023-01-03T11:36:45.051Z,19.70
2023-01-03T11:39:24.571Z,21.40
2023-01-03T11:42:11.039Z,22.42
2023-01-03T11:45:06.516Z,22.95
2023-01-03T11:47:46.971Z,24.40
2023-01-03T11:50:28.732Z,22.80
2023-01-03T11:53:02.739Z,22.05
2023-01-03T11:55:54.753Z,21.70
2023-01-03T11:58:46.878Z,21.80
2023-01-03T12:01:55.390Z,23.87
2023-01-03T12:04:41.051Z,23.08
2023-01-03T12:07:48.348Z,18.58
2023-01-03T12:10:39.867Z,17.65
2023-01-03T12:13:25.218Z,21.73
2023-01-03T12:16:03.654Z,20.15
2023-01-03T12:18:53.321Z,21.83
2023-01-03T12:21:40.458Z,20.10
2023-01-03T12:24:11.015Z,20.90
2023-01-03T12:26:41.920Z,20.35
2023-01-03T12:29:14.145Z,18.90
2023-01-03T12:31:49.679Z,20.80
2023-01-03T12:34:34.834Z,24.48
2023-01-03T12:37:19.452Z,20.23
2023-01-03T12:40:01.261Z,21.25
2023-01-03T12:42:31.942Z,22.65
2023-01-03T12:45:14.866Z,18.15
2023-01-03T12:48:01.108Z,27.25
2023-01-03T12:50:33.100Z,26.42
2023-01-03T12:53:06.703Z,22.92
2023-01-03T12:56:03.181Z,25.37
2023-01-03T12:58:53.818Z,24.42
2023-01-03T13:01:29.720Z,20.73
2023-01-03T13:04:02.827Z,20.98
2023-01-03T13:06:34.410Z,21.12
2023-01-03T13:09:05.437Z,19.35
2023-01-03T13:11:48.611Z,21.15
2023-01-03T13:14:18.172Z,18.90
2023-01-03T13:16:48.756Z,19.85
2023-01-03T13:19:22.557Z,17.85
2023-01-03T13:21:49.918Z,19.92
2023-01-03T13:24:52.991Z,18.10
2023-01-03T13:27:40.574Z,18.67
2023-01-03T13:30:26.409Z,19.20
2023-01-03T13:33:11.925Z,19.75
2023-01-03T13:35:42.440Z,22.25
2023-01-03T13:38:26.582Z,21.12
2023-01-03T13:43:50.744Z,18.05
2023-01-03T13:46:23.226Z,20.85
2023-01-03T13:48:54.373Z,17.95
2023-01-03T13:51:21.957Z,15.57
2023-01-03T13:54:00.456Z,17.95
2023-01-03T13:56:30.649Z,17.00
2023-01-03T13:59:02.571Z,18.42
2023-01-03T14:01:48.892Z,20.02
2023-01-03T14:04:39.617Z,18.25
2023-01-03T14:07:44.918Z,19.25
2023-01-03T14:10:21.551Z,21.80
2023-01-03T14:13:09.121Z,19.65
2023-01-03T14:15:36.878Z,21.17
2023-01-03T14:18:20.829Z,22.05
2023-01-03T14:20:51.374Z,22.70
2023-01-03T14:23:58.345Z,20.83
2023-01-03T14:26:16.057Z,21.70
2023-01-03T14:28:48.133Z,24.42
2023-01-03T14:33:52.855Z,23.90
2023-01-03T14:36:20.629Z,25.33
2023-01-03T14:38:47.918Z,24.10
2023-01-03T14:41:25.423Z,19.65
2023-01-03T14:44:09.245Z,24.90
2023-01-03T14:46:38.182Z,24.70
2023-01-03T14:49:16.824Z,25.67
2023-01-03T14:51:44.337Z,22.30
2023-01-03T14:54:16.168Z,24.63
2023-01-03T14:56:47.408Z,26.70
2023-01-03T14:59:16.886Z,25.43
2023-01-03T15:01:44.736Z,24.12
2023-01-03T15:04:16.406Z,24.42
2023-01-03T15:07:06.551Z,23.17
2023-01-03T15:09:38.627Z,23.73
2023-01-03T15:12:06.617Z,24.40
2023-01-03T15:14:37.261Z,24.70
2023-01-03T15:17:10.626Z,24.98
2023-01-03T15:19:41.246Z,29.08
2023-01-03T15:22:08.819Z,25.88
2023-01-03T15:24:43.445Z,24.67
2023-01-03T15:27:39.556Z,25.42
2023-01-03T15:30:16.265Z,26.10
2023-01-03T15:32:56.881Z,26.40
2023-01-03T15:35:38.221Z,26.20
2023-01-03T15:38:13.151Z,26.40
2023-01-03T15:40:40.900Z,24.67
2023-01-03T15:43:22.064Z,29.35
2023-01-03T15:46:14.738Z,25.92
2023-01-03T15:48:52.418Z,26.65
2023-01-03T15:51:19.836Z,26.70
2023-01-03T15:53:47.511Z,24.98
2023-01-03T15:56:20.551Z,23.85
2023-01-03T15:58:49.740Z,29.30
2023-01-03T16:01:18.783Z,27.73
2023-01-03T16:03:47.981Z,29.37
2023-01-03T16:06:16.379Z,29.10
2023-01-03T16:08:44.979Z,23.12
2023-01-03T16:11:19.609Z,25.05
2023-01-03T16:13:59.700Z,25.37
2023-01-03T16:16:30.234Z,24.42
2023-01-03T16:18:57.902Z,27.50
2023-01-03T16:21:25.582Z,25.30
2023-01-03T16:23:53.320Z,26.20
2023-01-03T16:26:20.773Z,24.35
2023-01-03T16:28:48.334Z,25.33
2023-01-03T16:31:19.262Z,24.73
2023-01-03T16:33:48.595Z,25.62
2023-01-03T16:36:29.749Z,29.92
2023-01-03T16:38:57.741Z,26.52
2023-01-03T16:41:25.592Z,26.30
2023-01-03T16:43:54.344Z,28.08
2023-01-03T16:46:24.474Z,27.00
2023-01-03T16:48:54.120Z,29.52
2023-01-03T16:51:46.741Z,27.73
2023-01-03T16:54:18.474Z,25.10
2023-01-03T16:56:46.154Z,27.25
2023-01-03T16:59:17.888Z,29.50
2023-01-03T17:01:46.368Z,25.80
2023-01-03T17:04:13.964Z,27.55
2023-01-03T17:06:41.400Z,25.48
2023-01-03T17:09:16.878Z,25.90
2023-01-03T17:11:44.989Z,30.90
2023-01-03T17:14:18.816Z,27.75
2023-01-03T17:16:47.002Z,29.15
2023-01-03T17:20:00.335Z,27.00
2023-01-03T17:22:14.077Z,24.30
2023-01-03T17:24:42.005Z,23.02
2023-01-03T17:27:16.453Z,21.77
2023-01-03T17:29:45.163Z,22.62
2023-01-03T17:32:20.644Z,20.90
2023-01-03T17:34:48.665Z,22.37
2023-01-03T17:37:20.446Z,24.30
2023-01-03T17:39:59.859Z,21.12
2023-01-03T17:42:29.120Z,26.30
2023-01-03T17:45:15.344Z,21.42
2023-01-03T17:48:02.885Z,22.13
2023-01-03T17:50:31.688Z,23.52
2023-01-03T17:53:00.939Z,22.37
2023-01-03T17:55:29.826Z,20.90
2023-01-03T17:58:00.898Z,22.13
2023-01-03T18:00:29.092Z,20.17
2023-01-03T18:02:57.189Z,21.50
2023-01-03T18:05:28.613Z,21.77
2023-01-03T18:07:57.557Z,25.80
2023-01-03T18:10:32.231Z,23.90
2023-01-03T18:13:00.136Z,21.73
2023-01-03T18:15:27.595Z,20.65
2023-01-03T18:17:55.056Z,22.48
2023-01-03T18:20:22.725Z,23.23
2023-01-03T18:22:50.241Z,22.27
2023-01-03T18:25:23.601Z,26.05
2023-01-03T18:28:01.679Z,25.65
2023-01-03T18:30:29.417Z,26.17
2023-01-03T18:32:57.112Z,24.98
2023-01-03T18:35:32.272Z,28.00
2023-01-03T18:38:01.771Z,24.87
2023-01-03T18:40:30.059Z,28.15
2023-01-03T18:43:12.996Z,26.85
2023-01-03T18:45:41.896Z,24.58
2023-01-03T18:48:17.291Z,29.67
2023-01-03T18:50:49.404Z,26.87
2023-01-03T18:53:23.237Z,25.77
2023-01-03T18:55:50.891Z,24.95
2023-01-03T18:58:31.941Z,27.60
2023-01-03T19:00:59.830Z,26.87
2023-01-03T19:03:29.611Z,26.23
2023-01-03T19:06:19.860Z,25.75
2023-01-03T19:08:48.325Z,24.75
2023-01-03T19:11:18.174Z,26.15
2023-01-03T19:13:50.963Z,24.02
2023-01-03T19:16:23.268Z,28.38
2023-01-03T19:18:51.164Z,27.25
2023-01-03T19:21:20.347Z,28.52
2023-01-03T19:23:58.606Z,26.60
2023-01-03T19:26:43.060Z,31.17
2023-01-03T19:29:23.923Z,26.42
2023-01-03T19:31:54.011Z,24.00
2023-01-03T19:34:25.075Z,24.92
2023-01-03T19:36:52.841Z,25.37
2023-01-03T19:39:25.182Z,24.63
2023-01-03T19:42:16.359Z,25.80
2023-01-03T19:44:43.825Z,25.23
2023-01-03T19:47:17.565Z,22.52
2023-01-03T19:49:49.013Z,23.80
2023-01-03T19:52:16.985Z,26.23
2023-01-03T19:54:44.726Z,29.10
2023-01-03T19:57:33.121Z,24.15
2023-01-03T20:00:01.722Z,23.65
2023-01-03T20:02:36.757Z,27.83
2023-01-03T20:05:22.950Z,24.05
2023-01-03T20:07:51.039Z,27.35
2023-01-03T20:10:18.672Z,31.45
2023-01-03T20:12:47.542Z,35.15
2023-01-03T20:15:18.653Z,27.30
2023-01-03T20:17:46.371Z,27.17
2023-01-03T20:20:14.289Z,22.75
2023-01-03T20:25:32.846Z,30.20
2023-01-03T20:28:01.340Z,25.35
2023-01-03T20:30:31.121Z,24.98
2023-01-03T20:32:58.995Z,24.50
2023-01-03T20:38:20.835Z,26.58
2023-01-03T20:40:48.286Z,27.80
2023-01-03T20:43:17.349Z,26.67
2023-01-03T20:45:45.494Z,24.83
2023-01-03T20:48:21.217Z,26.02
2023-01-03T20:50:53.130Z,22.48
2023-01-03T20:53:25.615Z,23.50
2023-01-03T20:55:54.014Z,22.58
2023-01-03T20:58:25.436Z,21.45
2023-01-03T21:00:59.932Z,19.02
2023-01-03T21:03:31.704Z,21.40
2023-01-03T21:05:59.586Z,21.33
2023-01-03T21:08:45.517Z,20.15
2023-01-03T21:11:13.503Z,19.55
2023-01-03T21:13:42.189Z,19.58
2023-01-03T21:16:28.080Z,20.95
2023-01-03T21:18:56.030Z,23.23
2023-01-03T21:21:23.918Z,22.05
2023-01-03T21:23:51.372Z,20.58
2023-01-03T21:26:19.245Z,18.87
2023-01-03T21:28:46.657Z,19.02
2023-01-03T21:31:19.372Z,19.30
2023-01-03T21:33:47.321Z,19.00
2023-01-03T21:36:24.516Z,17.70
2023-01-03T21:38:52.405Z,17.87
2023-01-03T21:41:22.527Z,18.08
2023-01-03T21:43:50.009Z,19.08
2023-01-03T21:46:19.499Z,19.17
2023-01-03T21:48:47.051Z,22.10
2023-01-03T21:51:20.707Z,22.05
2023-01-03T21:53:55.091Z,21.42
2023-01-03T21:56:24.171Z,23.10
2023-01-03T21:58:51.800Z,21.35
2023-01-03T22:01:24.464Z,19.65
2023-01-03T22:04:10.548Z,19.60
2023-01-03T22:06:38.263Z,18.95
2023-01-03T22:09:25.970Z,22.52
2023-01-03T22:11:53.360Z,19.17
2023-01-03T22:14:20.994Z,19.92
2023-01-03T22:16:48.424Z,18.40
2023-01-03T22:19:15.860Z,20.30
2023-01-03T22:21:43.520Z,17.58
2023-01-03T22:24:10.922Z,16.27
2023-01-03T22:26:38.322Z,16.45
2023-01-03T22:29:06.298Z,17.37
2023-01-03T22:31:33.733Z,18.67
2023-01-03T22:34:02.886Z,18.67
2023-01-03T22:36:30.600Z,19.00
2023-01-03T22:38:58.020Z,18.30
2023-01-03T22:41:25.372Z,17.98
2023-01-03T22:43:53.172Z,18.90
2023-01-03T22:46:21.313Z,20.48
2023-01-03T22:48:48.809Z,18.67
2023-01-03T22:51:16.845Z,18.77
2023-01-03T22:53:48.967Z,17.40
2023-01-03T22:58:45.395Z,18.30
2023-01-03T23:01:16.795Z,17.08
2023-01-03T23:03:45.646Z,18.27
2023-01-03T23:06:15.837Z,15.10
2023-01-03T23:08:43.362Z,15.25
2023-01-03T23:11:38.097Z,15.60
2023-01-03T23:14:12.083Z,13.57
2023-01-03T23:16:40.105Z,14.75
2023-01-03T23:19:11.212Z,15.32
2023-01-03T23:21:38.907Z,14.93
2023-01-03T23:24:07.139Z,14.57
2023-01-03T23:26:34.556Z,16.25
2023-01-03T23:29:01.958Z,17.95
2023-01-03T23:31:29.928Z,15.75
2023-01-03T23:33:58.685Z,14.77
2023-01-03T23:36:26.708Z,18.40
2023-01-03T23:38:55.293Z,14.85
2023-01-03T23:41:23.106Z,17.35
2023-01-03T23:43:50.977Z,13.82
2023-01-03T23:46:21.137Z,13.48
2023-01-03T23:48:54.946Z,14.25
2023-01-03T23:51:24.013Z,10.68
2023-01-03T23:53:52.131Z,10.57
2023-01-03T23:56:21.592Z,11.02
2023-01-03T23:58:49.616Z,15.25
